createdAt,value
2017-06-10T00:01:39.124Z,97.40
2017-06-10T00:04:07.933Z,97.30
2017-06-10T00:06:36.449Z,97.20
2017-06-10T00:09:06.165Z,97.10
2017-06-10T00:11:35.406Z,97.50
2017-06-10T00:14:03.916Z,97.40
2017-06-10T00:16:32.401Z,97.00
2017-06-10T00:19:01.065Z,97.00
2017-06-10T00:21:29.561Z,97.20
2017-06-10T00:23:58.216Z,97.00
2017-06-10T00:26:26.705Z,96.80
2017-06-10T00:28:55.386Z,96.40
2017-06-10T00:31:23.878Z,97.00
2017-06-10T00:33:52.837Z,96.80
2017-06-10T00:36:22.058Z,96.90
2017-06-10T00:38:50.617Z,96.80
2017-06-10T00:41:19.953Z,96.40
2017-06-10T00:43:48.556Z,96.30
2017-06-10T00:46:17.115Z,96.40
2017-06-10T00:48:45.737Z,96.50
2017-06-10T00:51:14.423Z,96.30
2017-06-10T00:53:42.904Z,96.40
2017-06-10T00:56:11.350Z,96.40
2017-06-10T00:58:39.859Z,95.90
2017-06-10T01:01:08.342Z,96.10
2017-06-10T01:03:36.806Z,95.90
2017-06-10T01:06:05.346Z,95.90
2017-06-10T01:08:34.238Z,96.40
2017-06-10T01:11:02.697Z,96.60
2017-06-10T01:13:31.251Z,96.60
2017-06-10T01:15:59.832Z,96.00
2017-06-10T01:18:28.293Z,96.20
2017-06-10T01:20:57.284Z,96.20
2017-06-10T01:23:26.657Z,96.30
2017-06-10T01:25:55.274Z,96.20
2017-06-10T01:28:24.105Z,96.00
2017-06-10T01:30:52.573Z,96.10
2017-06-10T01:33:21.061Z,95.90
2017-06-10T01:35:49.598Z,96.30
2017-06-10T01:38:19.302Z,96.40
2017-06-10T01:40:48.641Z,96.90
2017-06-10T01:43:17.142Z,96.00
2017-06-10T01:45:45.741Z,96.10
2017-06-10T01:48:14.292Z,96.20
2017-06-10T01:50:42.928Z,95.90
2017-06-10T01:53:11.594Z,96.10
2017-06-10T01:55:40.644Z,96.10
2017-06-10T01:58:09.598Z,96.00
2017-06-10T02:00:38.145Z,96.60
2017-06-10T02:03:06.942Z,95.60
2017-06-10T02:05:35.500Z,95.70
2017-06-10T02:08:04.115Z,95.80
2017-06-10T02:10:32.581Z,96.20
2017-06-10T02:13:01.603Z,96.10
2017-06-10T02:15:30.194Z,96.30
2017-06-10T02:17:58.697Z,96.70
2017-06-10T02:20:27.173Z,97.00
2017-06-10T02:22:55.629Z,97.10
2017-06-10T02:25:24.187Z,97.30
2017-06-10T02:27:52.673Z,97.50
2017-06-10T02:30:21.128Z,97.40
2017-06-10T02:32:50.366Z,97.30
2017-06-10T02:35:18.854Z,97.10
2017-06-10T02:37:47.305Z,97.60
2017-06-10T02:40:16.025Z,97.60
2017-06-10T02:42:44.718Z,97.90
2017-06-10T02:45:14.236Z,97.80
2017-06-10T02:47:46.453Z,98.20
2017-06-10T02:50:15.678Z,97.80
2017-06-10T02:52:44.341Z,97.60
2017-06-10T02:55:13.201Z,97.30
2017-06-10T02:57:41.637Z,96.90
2017-06-10T03:00:10.121Z,96.80
2017-06-10T03:02:38.607Z,96.70
2017-06-10T03:05:07.289Z,96.40
2017-06-10T03:07:35.764Z,96.30
2017-06-10T03:10:04.469Z,96.50
2017-06-10T03:12:32.948Z,96.30
2017-06-10T03:15:01.453Z,96.40
2017-06-10T03:17:30.340Z,96.60
2017-06-10T03:19:58.806Z,96.90
2017-06-10T03:22:27.281Z,97.10
2017-06-10T03:24:55.781Z,97.10
2017-06-10T03:27:24.250Z,96.90
2017-06-10T03:29:52.768Z,96.60
2017-06-10T03:32:21.241Z,96.50
2017-06-10T03:34:49.709Z,95.90
2017-06-10T03:37:18.292Z,96.30
2017-06-10T03:39:46.768Z,96.70
2017-06-10T03:42:15.769Z,96.90
2017-06-10T03:44:44.377Z,96.50
2017-06-10T03:47:13.170Z,96.40
2017-06-10T03:49:41.710Z,96.40
2017-06-10T03:52:10.360Z,96.80
2017-06-10T03:54:39.713Z,96.40
2017-06-10T03:57:08.389Z,96.40
2017-06-10T03:59:37.011Z,96.60
2017-06-10T04:02:05.501Z,96.70
2017-06-10T04:04:34.434Z,96.40
2017-06-10T04:07:02.905Z,95.60
2017-06-10T04:09:32.132Z,95.70
2017-06-10T04:12:00.848Z,95.50
2017-06-10T04:14:29.357Z,95.20
2017-06-10T04:16:58.614Z,94.50
2017-06-10T04:19:27.131Z,94.40
2017-06-10T04:21:55.573Z,94.50
2017-06-10T04:24:24.108Z,94.50
2017-06-10T04:26:53.314Z,93.30
2017-06-10T04:29:21.893Z,93.20
2017-06-10T04:31:51.161Z,93.00
2017-06-10T04:34:19.944Z,92.90
2017-06-10T04:36:48.496Z,92.30
2017-06-10T04:39:16.990Z,92.30
2017-06-10T04:41:47.103Z,92.40
2017-06-10T04:44:15.709Z,91.30
2017-06-10T04:46:44.276Z,91.50
2017-06-10T04:49:12.865Z,90.70
2017-06-10T04:51:41.349Z,91.10
2017-06-10T04:54:09.795Z,92.10
2017-06-10T04:56:39.583Z,90.80
2017-06-10T04:59:08.393Z,90.70
2017-06-10T05:01:37.635Z,84.50
2017-06-10T05:04:06.377Z,84.40
2017-06-10T05:06:34.952Z,83.60
2017-06-10T05:09:03.329Z,82.70
2017-06-10T05:11:31.921Z,78.10
2017-06-10T05:14:00.382Z,78.00
2017-06-10T05:16:28.873Z,74.90
2017-06-10T05:18:57.336Z,75.80
2017-06-10T05:21:26.337Z,74.60
2017-06-10T05:23:55.019Z,73.40
2017-06-10T05:26:23.549Z,72.00
2017-06-10T05:28:52.781Z,70.10
2017-06-10T05:31:20.646Z,70.10
2017-06-10T05:33:48.560Z,70.60
2017-06-10T05:36:16.490Z,70.50
2017-06-10T05:38:45.130Z,70.70
2017-06-10T05:41:13.742Z,70.80
2017-06-10T05:43:42.401Z,72.00
2017-06-10T05:46:10.975Z,74.20
2017-06-10T05:48:39.757Z,74.10
2017-06-10T05:51:08.421Z,74.80
2017-06-10T05:53:36.929Z,77.60
2017-06-10T05:56:05.418Z,79.20
2017-06-10T05:58:34.641Z,79.10
2017-06-10T06:01:03.366Z,77.70
2017-06-10T06:03:31.826Z,77.70
2017-06-10T06:06:00.551Z,79.00
2017-06-10T06:08:29.032Z,79.40
2017-06-10T06:10:58.111Z,80.20
2017-06-10T06:13:26.797Z,81.60
2017-06-10T06:15:55.278Z,80.90
2017-06-10T06:18:23.774Z,80.60
2017-06-10T06:20:52.665Z,80.70
2017-06-10T06:23:21.327Z,80.00
2017-06-10T06:25:50.084Z,80.10
2017-06-10T06:28:19.392Z,81.50
2017-06-10T06:30:49.262Z,80.70
2017-06-10T06:33:18.101Z,80.60
2017-06-10T06:35:46.636Z,80.30
2017-06-10T06:38:15.122Z,81.60
2017-06-10T06:40:43.592Z,80.40
2017-06-10T06:43:12.122Z,79.90
2017-06-10T06:45:41.671Z,80.70
2017-06-10T06:48:11.554Z,79.90
2017-06-10T06:50:40.774Z,76.50
2017-06-10T06:53:10.293Z,76.40
2017-06-10T06:55:39.254Z,77.20
2017-06-10T06:58:08.707Z,75.90
2017-06-10T07:00:37.249Z,75.80
2017-06-10T07:03:05.727Z,74.10
2017-06-10T07:05:34.931Z,69.60
2017-06-10T07:08:03.467Z,69.50
2017-06-10T07:10:31.929Z,66.20
2017-06-10T07:13:00.828Z,61.60
2017-06-10T07:15:28.738Z,59.90
2017-06-10T07:17:56.643Z,59.10
2017-06-10T07:20:24.522Z,59.30
2017-06-10T07:22:52.492Z,55.60
2017-06-10T07:25:20.393Z,57.30
2017-06-10T07:27:48.328Z,56.50
2017-06-10T07:30:16.525Z,54.00
2017-06-10T07:32:44.706Z,55.40
2017-06-10T07:35:12.681Z,56.80
2017-06-10T07:37:41.183Z,53.30
2017-06-10T07:40:09.853Z,55.90
2017-06-10T07:42:38.373Z,52.20
2017-06-10T07:45:06.234Z,56.10
2017-06-10T07:47:35.052Z,53.40
2017-06-10T07:50:02.948Z,53.30
2017-06-10T07:52:31.992Z,50.70
2017-06-10T07:54:59.973Z,51.30
2017-06-10T07:57:28.806Z,52.00
2017-06-10T07:59:56.665Z,54.10
2017-06-10T08:02:24.569Z,51.70
2017-06-10T08:04:53.044Z,50.60
2017-06-10T08:07:21.510Z,50.20
2017-06-10T08:09:50.429Z,52.60
2017-06-10T08:12:18.980Z,56.20
2017-06-10T08:14:47.437Z,55.40
2017-06-10T08:17:20.692Z,51.10
2017-06-10T08:19:49.275Z,49.00
2017-06-10T08:22:19.190Z,50.10
2017-06-10T08:24:48.903Z,49.70
2017-06-10T08:27:18.197Z,48.20
2017-06-10T08:29:46.689Z,48.20
2017-06-10T08:32:15.945Z,49.80
2017-06-10T08:34:44.778Z,49.70
2017-06-10T08:37:13.257Z,46.90
2017-06-10T08:39:41.717Z,45.50
2017-06-10T08:42:09.745Z,47.60
2017-06-10T08:44:38.201Z,45.90
2017-06-10T08:47:07.888Z,46.00
2017-06-10T08:49:36.486Z,45.70
2017-06-10T08:52:05.747Z,49.70
2017-06-10T08:54:34.517Z,49.60
2017-06-10T08:57:03.064Z,45.40
2017-06-10T08:59:32.289Z,45.60
2017-06-10T09:02:00.233Z,45.60
2017-06-10T09:04:29.120Z,45.40
2017-06-10T09:06:57.758Z,46.40
2017-06-10T09:09:26.341Z,45.50
2017-06-10T09:11:54.228Z,46.00
2017-06-10T09:14:22.173Z,43.80
2017-06-10T09:17:00.931Z,43.50
2017-06-10T09:19:29.178Z,42.10
2017-06-10T09:21:57.066Z,43.00
2017-06-10T09:24:25.150Z,41.90
2017-06-10T09:26:53.039Z,43.10
2017-06-10T09:29:22.545Z,44.80
2017-06-10T09:31:51.851Z,44.20
2017-06-10T09:34:23.359Z,40.40
2017-06-10T09:36:52.068Z,40.50
2017-06-10T09:39:20.120Z,40.90
2017-06-10T09:41:48.165Z,41.10
2017-06-10T09:44:16.272Z,41.30
2017-06-10T09:46:44.150Z,40.80
2017-06-10T09:49:12.194Z,42.80
2017-06-10T09:51:40.085Z,43.50
2017-06-10T09:54:07.953Z,41.00
2017-06-10T09:56:36.625Z,38.60
2017-06-10T09:59:04.549Z,38.60
2017-06-10T10:01:34.128Z,37.90
2017-06-10T10:04:02.226Z,36.80
2017-06-10T10:06:30.142Z,35.70
2017-06-10T10:08:58.058Z,36.30
2017-06-10T10:11:26.697Z,35.30
2017-06-10T10:13:54.590Z,35.30
2017-06-10T10:16:22.458Z,35.30
2017-06-10T10:18:50.904Z,36.30
2017-06-10T10:21:18.939Z,33.30
2017-06-10T10:23:46.843Z,33.70
2017-06-10T10:26:14.758Z,36.90
2017-06-10T10:28:42.744Z,35.10
2017-06-10T10:31:11.627Z,35.80
2017-06-10T10:33:42.581Z,34.30
2017-06-10T10:36:11.801Z,34.90
2017-06-10T10:38:39.705Z,34.80
2017-06-10T10:41:07.808Z,35.30
2017-06-10T10:43:37.104Z,38.00
2017-06-10T10:46:05.002Z,38.00
2017-06-10T10:48:33.189Z,36.80
2017-06-10T10:51:01.262Z,39.60
2017-06-10T10:53:29.158Z,38.70
2017-06-10T10:55:57.733Z,39.80
2017-06-10T10:58:26.510Z,43.00
2017-06-10T11:00:55.558Z,40.40
2017-06-10T11:03:23.533Z,39.00
2017-06-10T11:05:51.599Z,36.60
2017-06-10T11:08:19.677Z,38.00
2017-06-10T11:10:48.941Z,39.70
2017-06-10T11:13:18.245Z,39.70
2017-06-10T11:15:46.325Z,39.10
2017-06-10T11:18:14.213Z,41.30
2017-06-10T11:20:42.056Z,43.70
2017-06-10T11:23:10.153Z,45.40
2017-06-10T11:25:38.623Z,43.50
2017-06-10T11:28:07.286Z,43.80
2017-06-10T11:30:35.161Z,45.70
2017-06-10T11:33:03.879Z,43.30
2017-06-10T11:35:32.259Z,43.40
2017-06-10T11:38:02.345Z,38.20
2017-06-10T11:40:30.847Z,39.00
2017-06-10T11:42:59.548Z,39.40
2017-06-10T11:45:28.345Z,39.70
2017-06-10T11:47:58.787Z,35.60
2017-06-10T11:50:27.457Z,35.60
2017-06-10T11:52:55.969Z,35.40
2017-06-10T11:55:24.697Z,35.90
2017-06-10T11:57:53.033Z,34.20
2017-06-10T12:00:21.378Z,35.60
2017-06-10T12:02:49.256Z,34.40
2017-06-10T12:05:17.097Z,34.70
2017-06-10T12:07:45.506Z,36.00
2017-06-10T12:10:14.117Z,34.50
2017-06-10T12:12:42.827Z,34.50
2017-06-10T12:15:11.303Z,36.20
2017-06-10T12:17:39.940Z,35.00
2017-06-10T12:20:08.878Z,36.90
2017-06-10T12:22:40.890Z,37.30
2017-06-10T12:25:16.092Z,37.90
2017-06-10T12:27:44.661Z,37.40
2017-06-10T12:30:13.113Z,39.40
2017-06-10T12:32:41.593Z,43.20
2017-06-10T12:35:10.907Z,41.00
2017-06-10T12:37:39.382Z,40.90
2017-06-10T12:40:08.050Z,42.30
2017-06-10T12:42:37.600Z,39.50
2017-06-10T12:45:06.110Z,39.50
2017-06-10T12:47:35.598Z,41.30
2017-06-10T12:50:04.073Z,42.30
2017-06-10T12:52:32.904Z,42.00
2017-06-10T12:55:01.796Z,41.60
2017-06-10T12:57:30.281Z,42.40
2017-06-10T12:59:59.027Z,45.00
2017-06-10T13:02:26.876Z,43.90
2017-06-10T13:04:54.918Z,44.80
2017-06-10T13:07:23.597Z,44.00
2017-06-10T13:09:51.776Z,43.90
2017-06-10T13:12:19.952Z,45.20
2017-06-10T13:14:48.610Z,44.20
2017-06-10T13:17:16.486Z,43.40
2017-06-10T13:19:46.813Z,45.30
2017-06-10T13:22:15.525Z,47.00
2017-06-10T13:24:44.136Z,47.00
2017-06-10T13:27:11.967Z,46.90
2017-06-10T13:29:40.116Z,45.00
2017-06-10T13:32:08.168Z,46.10
2017-06-10T13:34:36.465Z,43.80
2017-06-10T13:37:04.377Z,44.60
2017-06-10T13:39:32.269Z,44.20
2017-06-10T13:42:00.160Z,42.60
2017-06-10T13:44:33.748Z,44.20
2017-06-10T13:47:01.940Z,44.40
2017-06-10T13:49:29.795Z,44.60
2017-06-10T13:51:57.657Z,42.10
2017-06-10T13:54:25.553Z,43.00
2017-06-10T13:56:53.448Z,41.50
2017-06-10T13:59:22.110Z,41.90
2017-06-10T14:01:50.760Z,40.80
2017-06-10T14:04:18.642Z,40.70
2017-06-10T14:06:47.244Z,40.20
2017-06-10T14:09:15.754Z,44.80
2017-06-10T14:11:45.014Z,45.50
2017-06-10T14:14:13.502Z,45.50
2017-06-10T14:16:42.105Z,44.40
2017-06-10T14:19:10.653Z,43.90
2017-06-10T14:21:39.334Z,47.90
2017-06-10T14:24:08.161Z,44.80
2017-06-10T14:26:36.641Z,44.70
2017-06-10T14:29:05.454Z,48.00
2017-06-10T14:31:34.005Z,45.00
2017-06-10T14:34:02.482Z,45.10
2017-06-10T14:36:31.005Z,46.20
2017-06-10T14:39:00.346Z,45.80
2017-06-10T14:41:29.213Z,45.00
2017-06-10T14:43:58.730Z,42.60
2017-06-10T14:46:27.218Z,42.60
2017-06-10T14:48:56.134Z,42.00
2017-06-10T14:51:25.201Z,43.50
2017-06-10T14:53:53.666Z,45.60
2017-06-10T14:56:22.980Z,46.50
2017-06-10T14:58:51.483Z,46.50
2017-06-10T15:01:20.979Z,45.50
2017-06-10T15:03:49.655Z,47.20
2017-06-10T15:06:19.723Z,48.80
2017-06-10T15:08:49.000Z,48.80
2017-06-10T15:11:17.593Z,47.40
2017-06-10T15:13:46.313Z,45.80
2017-06-10T15:16:15.215Z,48.80
2017-06-10T15:18:43.432Z,48.80
2017-06-10T15:21:12.743Z,46.70
2017-06-10T15:23:41.791Z,48.50
2017-06-10T15:26:09.685Z,45.30
2017-06-10T15:28:39.219Z,48.60
2017-06-10T15:31:08.526Z,48.30
2017-06-10T15:33:37.010Z,48.30
2017-06-10T15:36:06.214Z,48.60
2017-06-10T15:38:34.535Z,48.70
2017-06-10T15:41:02.441Z,48.40
2017-06-10T15:43:30.308Z,48.10
2017-06-10T15:45:58.712Z,50.60
2017-06-10T15:48:26.617Z,52.50
2017-06-10T15:50:54.960Z,50.10
2017-06-10T15:53:22.904Z,49.20
2017-06-10T15:55:50.792Z,49.10
2017-06-10T15:58:18.659Z,50.90
2017-06-10T16:00:50.744Z,51.60
2017-06-10T16:03:18.905Z,50.00
2017-06-10T16:05:46.945Z,50.00
2017-06-10T16:08:15.466Z,51.50
2017-06-10T16:10:44.179Z,50.80
2017-06-10T16:13:13.442Z,51.00
2017-06-10T16:15:41.897Z,51.00
2017-06-10T16:18:10.443Z,52.30
2017-06-10T16:20:39.681Z,52.70
2017-06-10T16:23:08.225Z,51.60
2017-06-10T16:25:37.192Z,50.50
2017-06-10T16:28:07.023Z,51.70
2017-06-10T16:30:35.530Z,50.50
2017-06-10T16:33:04.053Z,51.50
2017-06-10T16:35:32.563Z,51.10
2017-06-10T16:38:01.203Z,50.50
2017-06-10T16:40:29.787Z,51.30
2017-06-10T16:42:58.319Z,51.50
2017-06-10T16:45:27.628Z,50.70
2017-06-10T16:47:56.121Z,52.20
2017-06-10T16:50:25.360Z,51.80
2017-06-10T16:52:57.651Z,51.10
2017-06-10T16:55:26.479Z,53.90
2017-06-10T16:57:55.699Z,53.20
2017-06-10T17:00:24.297Z,52.20
2017-06-10T17:02:52.922Z,52.90
2017-06-10T17:05:21.449Z,54.50
2017-06-10T17:07:51.255Z,53.50
2017-06-10T17:10:19.789Z,53.30
2017-06-10T17:12:47.637Z,54.20
2017-06-10T17:15:16.149Z,57.60
2017-06-10T17:17:44.729Z,60.00
2017-06-10T17:20:12.669Z,61.80
2017-06-10T17:22:40.527Z,65.70
2017-06-10T17:25:08.512Z,69.00
2017-06-10T17:27:37.013Z,75.30
2017-06-10T17:30:04.891Z,75.40
2017-06-10T17:32:32.772Z,73.50
2017-06-10T17:35:00.848Z,76.60
2017-06-10T17:37:29.487Z,79.90
2017-06-10T17:39:57.414Z,79.70
2017-06-10T17:42:26.085Z,82.30
2017-06-10T17:44:54.769Z,84.00
2017-06-10T17:47:23.237Z,85.10
2017-06-10T17:49:51.781Z,85.10
2017-06-10T17:52:21.725Z,86.40
2017-06-10T17:54:50.324Z,86.10
2017-06-10T17:57:19.037Z,88.10
2017-06-10T17:59:47.510Z,85.50
2017-06-10T18:02:15.399Z,86.10
2017-06-10T18:04:44.016Z,86.60
2017-06-10T18:07:11.940Z,86.60
2017-06-10T18:09:40.588Z,84.30
2017-06-10T18:12:08.660Z,84.20
2017-06-10T18:14:37.169Z,83.60
2017-06-10T18:17:05.733Z,84.60
2017-06-10T18:19:34.578Z,83.30
2017-06-10T18:22:03.857Z,86.10
2017-06-10T18:24:32.470Z,86.00
2017-06-10T18:27:04.980Z,86.20
2017-06-10T18:29:33.554Z,85.20
2017-06-10T18:32:06.607Z,84.80
2017-06-10T18:34:36.268Z,86.80
2017-06-10T18:37:05.444Z,86.80
2017-06-10T18:39:34.277Z,85.30
2017-06-10T18:42:03.706Z,86.00
2017-06-10T18:44:31.645Z,82.10
2017-06-10T18:47:00.209Z,77.90
2017-06-10T18:49:29.003Z,78.10
2017-06-10T18:52:00.021Z,80.60
2017-06-10T18:54:28.492Z,79.30
2017-06-10T18:56:57.074Z,80.70
2017-06-10T18:59:26.827Z,81.90
2017-06-10T19:01:55.401Z,81.80
2017-06-10T19:04:24.611Z,83.60
2017-06-10T19:06:53.431Z,83.60
2017-06-10T19:09:21.963Z,84.90
2017-06-10T19:11:50.685Z,83.10
2017-06-10T19:14:19.686Z,85.40
2017-06-10T19:16:48.365Z,85.10
2017-06-10T19:19:17.042Z,86.00
2017-06-10T19:21:45.757Z,86.00
2017-06-10T19:24:15.055Z,85.60
2017-06-10T19:26:45.095Z,85.90
2017-06-10T19:29:14.261Z,85.70
2017-06-10T19:31:43.212Z,86.00
2017-06-10T19:34:11.839Z,87.30
2017-06-10T19:36:54.163Z,86.20
2017-06-10T19:39:22.941Z,85.00
2017-06-10T19:41:52.064Z,85.90
2017-06-10T19:44:20.945Z,83.50
2017-06-10T19:46:49.890Z,81.80
2017-06-10T19:49:18.789Z,85.60
2017-06-10T19:51:47.284Z,83.70
2017-06-10T19:54:16.115Z,84.40
2017-06-10T19:56:46.018Z,85.50
2017-06-10T19:59:15.009Z,85.50
2017-06-10T20:01:43.783Z,85.70
2017-06-10T20:04:12.449Z,86.00
2017-06-10T20:06:41.398Z,86.70
2017-06-10T20:09:10.729Z,87.70
2017-06-10T20:11:39.336Z,87.60
2017-06-10T20:14:07.861Z,87.60
2017-06-10T20:16:35.936Z,86.20
2017-06-10T20:19:05.189Z,87.00
2017-06-10T20:21:33.789Z,86.90
2017-06-10T20:24:02.550Z,87.90
2017-06-10T20:26:30.492Z,88.50
2017-06-10T20:28:59.870Z,89.10
2017-06-10T20:31:27.748Z,89.10
2017-06-10T20:33:55.915Z,90.50
2017-06-10T20:36:24.527Z,90.90
2017-06-10T20:38:53.045Z,90.80
2017-06-10T20:41:21.614Z,90.50
2017-06-10T20:43:50.090Z,90.40
2017-06-10T20:46:18.601Z,90.10
2017-06-10T20:48:47.438Z,90.40
2017-06-10T20:51:16.826Z,89.30
2017-06-10T20:53:47.111Z,89.20
2017-06-10T20:56:15.606Z,90.30
2017-06-10T20:58:44.095Z,89.40
2017-06-10T21:01:13.121Z,89.20
2017-06-10T21:03:43.417Z,89.10
2017-06-10T21:06:12.173Z,89.00
2017-06-10T21:08:40.693Z,89.30
2017-06-10T21:11:09.173Z,88.10
2017-06-10T21:13:37.961Z,89.10
2017-06-10T21:16:05.816Z,88.30
2017-06-10T21:18:34.310Z,90.10
2017-06-10T21:21:02.796Z,90.20
2017-06-10T21:23:31.294Z,89.70
2017-06-10T21:25:59.743Z,88.60
2017-06-10T21:28:28.475Z,87.60
2017-06-10T21:30:57.708Z,89.00
2017-06-10T21:33:26.189Z,89.00
2017-06-10T21:35:54.669Z,89.80
2017-06-10T21:38:23.625Z,90.70
2017-06-10T21:40:52.111Z,90.70
2017-06-10T21:43:20.392Z,90.50
2017-06-10T21:45:49.793Z,92.00
2017-06-10T21:48:17.680Z,91.00
2017-06-10T21:50:46.193Z,91.00
2017-06-10T21:53:14.727Z,90.80
2017-06-10T21:55:43.363Z,91.30
2017-06-10T21:58:11.901Z,91.30
2017-06-10T22:00:41.653Z,92.70
2017-06-10T22:03:11.064Z,92.70
2017-06-10T22:05:39.749Z,93.00
2017-06-10T22:08:08.258Z,93.40
2017-06-10T22:10:36.746Z,93.20
2017-06-10T22:13:05.213Z,92.60
2017-06-10T22:15:33.700Z,92.80
2017-06-10T22:18:02.374Z,92.60
2017-06-10T22:20:31.634Z,92.30
2017-06-10T22:23:00.101Z,91.70
2017-06-10T22:25:28.604Z,91.80
2017-06-10T22:27:57.065Z,92.00
2017-06-10T22:30:25.548Z,91.50
2017-06-10T22:32:54.095Z,90.90
2017-06-10T22:35:22.581Z,91.00
2017-06-10T22:37:51.082Z,91.20
2017-06-10T22:40:19.973Z,91.20
2017-06-10T22:42:48.870Z,91.70
2017-06-10T22:45:17.360Z,89.20
2017-06-10T22:47:45.808Z,89.40
2017-06-10T22:50:14.289Z,88.80
2017-06-10T22:52:43.014Z,87.50
2017-06-10T22:55:12.221Z,88.10
2017-06-10T22:57:41.179Z,88.10
2017-06-10T23:00:09.742Z,88.70
2017-06-10T23:02:38.579Z,89.00
2017-06-10T23:05:07.097Z,89.10
2017-06-10T23:07:35.585Z,88.90
2017-06-10T23:10:04.117Z,89.90
2017-06-10T23:12:32.561Z,90.50
2017-06-10T23:15:01.367Z,90.30
2017-06-10T23:17:29.813Z,90.30
2017-06-10T23:19:58.736Z,90.60
2017-06-10T23:22:27.229Z,89.30
2017-06-10T23:24:55.929Z,89.80
2017-06-10T23:27:24.573Z,88.80
2017-06-10T23:29:53.053Z,88.60
2017-06-10T23:32:21.754Z,90.00
2017-06-10T23:34:50.247Z,89.00
2017-06-10T23:37:18.726Z,90.10
2017-06-10T23:39:47.614Z,89.30
2017-06-10T23:42:16.522Z,89.00
2017-06-10T23:44:44.957Z,89.40
2017-06-10T23:47:13.744Z,89.40
2017-06-10T23:49:42.210Z,90.50
2017-06-10T23:52:11.709Z,91.20
2017-06-10T23:54:40.948Z,91.20
2017-06-10T23:57:09.646Z,91.10
2017-06-10T23:59:38.081Z,91.80
